首页
METAR-TAF:

METAR-TAF

机场 :

巴塞尔-米卢斯-弗赖堡欧洲机场

巴塞尔-米卢斯-弗赖堡欧洲机场, 法国

纬度: 47-36N, 经度: 007-31E, 海拔: 270米

当前天气观测

该预报发布于15分钟前的02:30 UTC
风速2节,风向西南
温度 21°C
湿度 94%
气压 1022 hPa
能见度10公里或以上
1500米以下无云,无积雨云

METAR: LFSB 270230Z 22002KT CAVOK 21/20 Q1022 NOSIG

时间: 04:45 (02:45 UTC)

预报

该预报发布于3小时和45分钟前的23:00 UTC
预报有效从27日的 00点(UTC)到 27日的 24点(UTC)
风速2节,风向多变
能见度10公里或以上
1500米以下无云,无积雨云
成为
从 27日的 11点(UTC)到 27日的 13点(UTC)
风速10节,风向

TAF: LFSB 262300Z 2700/2724 VRB02KT CAVOK BECMG 2711/2713 36010KT

超过4000个机场的气象观测和天气预报(METAR&TAF报告)。

可查询的气象台以黄色和红色小点在地图上表示。

将鼠标移到小点上方,可查看气象台名称。

然后点击查看天气观测和预报。

如需切换地图:点击带黑十字的绿色按钮放大地图;点击带横线的绿色按钮缩小地图;或者点击绿色箭头查看邻近地区的地图。


METAR-TAF: